createdAt,value
2018-11-27T00:01:00.880Z,10.53
2018-11-27T00:03:35.872Z,10.13
2018-11-27T00:06:06.050Z,9.23
2018-11-27T00:08:36.115Z,9.20
2018-11-27T00:11:05.844Z,9.80
2018-11-27T00:13:35.588Z,9.63
2018-11-27T00:16:09.266Z,9.53
2018-11-27T00:18:39.150Z,9.97
2018-11-27T00:21:09.020Z,9.60
2018-11-27T00:23:38.984Z,9.40
2018-11-27T00:26:08.680Z,9.53
2018-11-27T00:28:38.646Z,9.80
2018-11-27T00:31:08.484Z,9.33
2018-11-27T00:33:38.258Z,10.13
2018-11-27T00:36:08.182Z,9.57
2018-11-27T00:38:37.964Z,9.93
2018-11-27T00:41:07.702Z,9.30
2018-11-27T00:43:37.445Z,9.03
2018-11-27T00:46:07.384Z,9.60
2018-11-27T00:48:37.406Z,8.80
2018-11-27T00:51:07.452Z,9.25
2018-11-27T00:53:37.434Z,9.03
2018-11-27T00:56:07.552Z,9.43
2018-11-27T00:58:37.523Z,8.95
2018-11-27T01:01:07.518Z,9.43
2018-11-27T01:03:37.586Z,9.53
2018-11-27T01:06:07.697Z,9.68
2018-11-27T01:08:37.582Z,8.45
2018-11-27T01:11:07.440Z,9.70
2018-11-27T01:13:37.358Z,9.93
2018-11-27T01:16:07.295Z,9.45
2018-11-27T01:18:37.303Z,9.07
2018-11-27T01:21:07.343Z,9.48
2018-11-27T01:23:37.278Z,10.27
2018-11-27T01:26:07.510Z,10.03
2018-11-27T01:28:37.561Z,9.13
2018-11-27T01:31:07.781Z,8.95
2018-11-27T01:33:37.895Z,10.40
2018-11-27T01:36:07.809Z,9.63
2018-11-27T01:38:37.761Z,9.07
2018-11-27T01:41:07.912Z,9.63
2018-11-27T01:43:37.853Z,9.40
2018-11-27T01:46:07.808Z,10.00
2018-11-27T01:48:38.080Z,9.90
2018-11-27T01:51:08.114Z,9.23
2018-11-27T01:53:38.019Z,9.47
2018-11-27T01:56:07.880Z,9.73
2018-11-27T01:58:37.796Z,9.30
2018-11-27T02:01:07.734Z,9.27
2018-11-27T02:03:37.669Z,9.87
2018-11-27T02:06:07.660Z,9.83
2018-11-27T02:08:37.337Z,9.27
2018-11-27T02:11:07.285Z,9.73
2018-11-27T02:13:38.350Z,9.87
2018-11-27T02:16:08.446Z,9.90
2018-11-27T02:18:38.331Z,9.25
2018-11-27T02:21:08.590Z,10.23
2018-11-27T02:23:38.642Z,9.45
2018-11-27T02:26:39.436Z,9.93
2018-11-27T02:29:39.983Z,9.90
2018-11-27T02:32:09.896Z,9.83
2018-11-27T02:34:39.929Z,9.43
2018-11-27T02:37:09.956Z,9.90
2018-11-27T02:39:39.678Z,10.07
2018-11-27T02:42:09.697Z,10.07
2018-11-27T02:44:39.721Z,10.40
2018-11-27T02:47:09.493Z,9.80
2018-11-27T02:49:39.558Z,10.38
2018-11-27T02:52:09.623Z,9.57
2018-11-27T02:54:39.570Z,10.40
2018-11-27T02:57:09.495Z,9.10
2018-11-27T02:59:39.376Z,9.27
2018-11-27T03:02:09.443Z,9.97
2018-11-27T03:04:39.457Z,9.03
2018-11-27T03:07:09.271Z,9.20
2018-11-27T03:09:39.456Z,9.60
2018-11-27T03:12:09.508Z,8.90
2018-11-27T03:14:39.305Z,10.13
2018-11-27T03:17:09.277Z,8.83
2018-11-27T03:19:39.213Z,9.33
2018-11-27T03:22:09.342Z,8.67
2018-11-27T03:24:39.249Z,8.93
2018-11-27T03:27:09.100Z,9.10
2018-11-27T03:29:38.967Z,9.47
2018-11-27T03:32:08.937Z,8.67
2018-11-27T03:34:38.782Z,9.13
2018-11-27T03:37:08.657Z,9.45
2018-11-27T03:39:38.708Z,8.13
2018-11-27T03:42:08.742Z,8.70
2018-11-27T03:44:38.830Z,9.53
2018-11-27T03:47:08.704Z,9.33
2018-11-27T03:49:38.541Z,9.33
2018-11-27T03:52:08.501Z,9.00
2018-11-27T03:54:38.479Z,9.07
2018-11-27T03:57:08.337Z,9.47
2018-11-27T03:59:38.262Z,8.50
2018-11-27T04:02:08.094Z,8.30
2018-11-27T04:04:38.022Z,8.30
2018-11-27T04:07:08.717Z,8.27
2018-11-27T04:09:38.707Z,8.13
2018-11-27T04:12:08.898Z,8.10
2018-11-27T04:14:38.969Z,7.87
2018-11-27T04:17:08.999Z,8.10
2018-11-27T04:19:38.943Z,7.73
2018-11-27T04:22:09.023Z,7.13
2018-11-27T04:24:39.034Z,8.97
2018-11-27T04:27:09.008Z,7.90
2018-11-27T04:29:39.252Z,7.90
2018-11-27T04:32:09.082Z,8.33
2018-11-27T04:34:39.230Z,7.77
2018-11-27T04:37:09.159Z,8.30
2018-11-27T04:39:38.964Z,8.90
2018-11-27T04:42:08.855Z,7.77
2018-11-27T04:44:38.780Z,8.27
2018-11-27T04:47:08.807Z,7.47
2018-11-27T04:49:38.768Z,7.75
2018-11-27T04:52:08.715Z,7.93
2018-11-27T04:54:38.896Z,7.67
2018-11-27T04:57:08.717Z,8.50
2018-11-27T04:59:38.618Z,7.60
2018-11-27T05:02:08.381Z,8.50
2018-11-27T05:04:38.390Z,7.47
2018-11-27T05:07:08.480Z,8.70
2018-11-27T05:09:38.421Z,7.37
2018-11-27T05:12:39.082Z,7.57
2018-11-27T05:15:11.386Z,7.72
2018-11-27T05:17:41.358Z,7.87
2018-11-27T05:20:12.530Z,8.40
2018-11-27T05:22:42.616Z,7.53
2018-11-27T05:25:13.546Z,8.37
2018-11-27T05:27:45.597Z,8.40
2018-11-27T05:30:16.771Z,8.80
2018-11-27T05:32:46.686Z,8.40
2018-11-27T05:35:18.889Z,8.83
2018-11-27T05:37:49.685Z,8.77
2018-11-27T05:40:21.517Z,8.80
2018-11-27T05:42:53.653Z,9.63
2018-11-27T05:45:24.521Z,8.63
2018-11-27T05:47:54.626Z,8.53
2018-11-27T05:50:24.567Z,8.70
2018-11-27T05:52:54.643Z,9.10
2018-11-27T05:55:24.726Z,9.10
2018-11-27T05:57:55.448Z,8.70
2018-11-27T06:00:27.433Z,9.63
2018-11-27T06:02:59.398Z,8.95
2018-11-27T06:05:29.375Z,10.07
2018-11-27T06:07:59.449Z,10.30
2018-11-27T06:10:29.441Z,10.50
2018-11-27T06:12:59.397Z,8.60
2018-11-27T06:15:32.685Z,8.97
2018-11-27T06:18:03.963Z,9.30
2018-11-27T06:20:34.072Z,9.40
2018-11-27T06:23:04.472Z,9.20
2018-11-27T06:25:34.276Z,9.80
2018-11-27T06:28:06.838Z,8.83
2018-11-27T06:30:37.223Z,9.67
2018-11-27T06:33:07.355Z,9.50
2018-11-27T06:35:39.114Z,9.13
2018-11-27T06:38:10.081Z,8.67
2018-11-27T06:40:40.830Z,9.55
2018-11-27T06:45:43.275Z,10.17
2018-11-27T06:48:12.587Z,9.90
2018-11-27T06:50:41.985Z,9.73
2018-11-27T06:53:11.340Z,11.35
2018-11-27T06:55:40.563Z,11.13
2018-11-27T06:58:09.888Z,10.93
2018-11-27T07:00:39.079Z,10.68
2018-11-27T07:03:11.451Z,11.35
2018-11-27T07:05:40.671Z,10.60
2018-11-27T07:08:10.226Z,15.60
2018-11-27T07:10:41.379Z,17.63
2018-11-27T07:13:14.054Z,17.97
2018-11-27T07:15:43.293Z,18.15
2018-11-27T07:18:12.559Z,15.30
2018-11-27T07:20:41.759Z,13.87
2018-11-27T07:23:10.975Z,11.93
2018-11-27T07:25:40.309Z,11.20
2018-11-27T07:28:09.511Z,11.95
2018-11-27T07:30:40.205Z,11.37
2018-11-27T07:33:09.481Z,11.87
2018-11-27T07:35:38.672Z,11.03
2018-11-27T07:38:07.899Z,12.27
2018-11-27T07:40:37.447Z,11.23
2018-11-27T07:43:11.049Z,12.40
2018-11-27T07:45:40.543Z,14.10
2018-11-27T07:48:10.290Z,14.40
2018-11-27T07:50:39.497Z,12.47
2018-11-27T07:53:08.817Z,13.53
2018-11-27T07:55:38.032Z,12.87
2018-11-27T07:58:07.605Z,11.23
2018-11-27T08:00:37.028Z,12.40
2018-11-27T08:03:07.080Z,12.30
2018-11-27T08:05:38.621Z,12.20
2018-11-27T08:08:10.351Z,12.60
2018-11-27T08:10:39.597Z,13.10
2018-11-27T08:13:09.297Z,13.20
2018-11-27T08:15:38.533Z,12.70
2018-11-27T08:18:07.900Z,12.13
2018-11-27T08:20:37.097Z,12.30
2018-11-27T08:23:07.733Z,12.27
2018-11-27T08:25:37.037Z,13.00
2018-11-27T08:28:07.511Z,12.00
2018-11-27T08:30:36.713Z,13.63
2018-11-27T08:33:06.406Z,13.77
2018-11-27T08:35:35.690Z,15.13
2018-11-27T08:38:04.923Z,14.37
2018-11-27T08:40:34.646Z,14.63
2018-11-27T08:43:04.839Z,14.85
2018-11-27T08:45:34.470Z,15.18
2018-11-27T08:48:04.403Z,15.25
2018-11-27T08:50:34.469Z,16.12
2018-11-27T08:53:05.794Z,16.87
2018-11-27T08:55:44.151Z,17.50
2018-11-27T08:58:18.662Z,17.70
2018-11-27T09:00:47.915Z,18.65
2018-11-27T09:03:18.205Z,18.02
2018-11-27T09:05:47.556Z,18.80
2018-11-27T09:08:16.991Z,17.98
2018-11-27T09:10:46.269Z,16.60
2018-11-27T09:13:15.790Z,16.05
2018-11-27T09:15:45.556Z,16.47
2018-11-27T09:18:19.538Z,15.90
2018-11-27T09:20:49.479Z,17.00
2018-11-27T09:23:18.728Z,17.10
2018-11-27T09:25:48.007Z,18.47
2018-11-27T09:28:17.322Z,17.10
2018-11-27T09:30:46.586Z,17.23
2018-11-27T09:33:16.008Z,18.50
2018-11-27T09:35:45.333Z,18.47
2018-11-27T09:38:14.579Z,19.33
2018-11-27T09:40:44.062Z,19.40
2018-11-27T09:43:13.346Z,18.25
2018-11-27T09:45:43.918Z,19.97
2018-11-27T09:48:13.197Z,19.25
2018-11-27T09:50:42.414Z,18.70
2018-11-27T09:53:13.275Z,19.63
2018-11-27T09:55:42.554Z,21.57
2018-11-27T09:58:11.874Z,19.20
2018-11-27T10:00:42.124Z,19.50
2018-11-27T10:03:12.939Z,19.07
2018-11-27T10:05:42.216Z,18.73
2018-11-27T10:08:11.523Z,20.80
2018-11-27T10:10:40.796Z,20.60
2018-11-27T10:13:10.035Z,19.70
2018-11-27T10:15:39.343Z,20.00
2018-11-27T10:18:08.603Z,19.93
2018-11-27T10:20:42.300Z,19.80
2018-11-27T10:23:12.583Z,20.27
2018-11-27T10:25:41.857Z,19.43
2018-11-27T10:28:11.121Z,20.20
2018-11-27T10:30:40.498Z,20.67
2018-11-27T10:33:10.965Z,20.17
2018-11-27T10:35:47.142Z,20.97
2018-11-27T10:38:16.377Z,22.05
2018-11-27T10:40:46.248Z,20.80
2018-11-27T10:43:19.718Z,21.60
2018-11-27T10:45:44.767Z,21.90
2018-11-27T10:48:14.099Z,22.13
2018-11-27T10:50:43.495Z,21.70
2018-11-27T10:53:13.444Z,22.13
2018-11-27T10:55:42.781Z,23.95
2018-11-27T10:58:12.161Z,23.10
2018-11-27T11:00:51.238Z,24.62
2018-11-27T11:03:25.117Z,23.40
2018-11-27T11:05:56.483Z,23.40
2018-11-27T11:08:26.456Z,23.03
2018-11-27T11:10:56.298Z,22.43
2018-11-27T11:13:26.251Z,22.90
2018-11-27T11:15:56.267Z,22.40
2018-11-27T11:18:26.487Z,21.10
2018-11-27T11:20:56.470Z,21.27
2018-11-27T11:23:26.483Z,20.93
2018-11-27T11:25:56.545Z,21.40
2018-11-27T11:28:29.343Z,22.70
2018-11-27T11:30:59.443Z,23.10
2018-11-27T11:33:29.611Z,22.33
2018-11-27T11:35:59.774Z,22.33
2018-11-27T11:38:29.653Z,22.03
2018-11-27T11:40:59.685Z,22.53
2018-11-27T11:43:29.661Z,20.70
2018-11-27T11:45:59.804Z,21.47
2018-11-27T11:48:29.799Z,20.40
2018-11-27T11:50:59.669Z,20.97
2018-11-27T11:53:29.932Z,21.97
2018-11-27T11:55:59.911Z,22.10
2018-11-27T11:58:29.853Z,20.57
2018-11-27T12:00:59.878Z,22.70
2018-11-27T12:03:29.970Z,20.97
2018-11-27T12:06:00.081Z,21.70
2018-11-27T12:08:30.106Z,21.60
2018-11-27T12:11:00.323Z,21.80
2018-11-27T12:13:30.471Z,22.43
2018-11-27T12:16:00.743Z,20.63
2018-11-27T12:18:30.925Z,21.63
2018-11-27T12:21:01.332Z,21.87
2018-11-27T12:23:31.624Z,21.00
2018-11-27T12:26:01.743Z,20.17
2018-11-27T12:28:32.086Z,21.57
2018-11-27T12:31:02.511Z,20.60
2018-11-27T12:33:32.682Z,20.47
2018-11-27T12:36:02.835Z,21.20
2018-11-27T12:38:33.266Z,21.90
2018-11-27T12:41:03.601Z,19.90
2018-11-27T12:43:33.862Z,20.50
2018-11-27T12:46:03.915Z,20.17
2018-11-27T12:48:34.084Z,19.07
2018-11-27T12:51:04.605Z,21.00
2018-11-27T12:53:35.063Z,18.83
2018-11-27T12:56:05.291Z,21.80
2018-11-27T12:58:35.563Z,21.47
2018-11-27T13:01:09.457Z,23.13
2018-11-27T13:03:36.671Z,20.60
2018-11-27T13:06:07.624Z,21.20
2018-11-27T13:08:38.220Z,20.85
2018-11-27T13:11:11.485Z,19.70
2018-11-27T13:13:38.256Z,20.57
2018-11-27T13:16:08.419Z,19.50
2018-11-27T13:18:38.615Z,19.70
2018-11-27T13:21:09.017Z,21.43
2018-11-27T13:23:42.708Z,22.00
2018-11-27T13:26:12.880Z,20.10
2018-11-27T13:28:42.902Z,19.47
2018-11-27T13:31:13.179Z,19.57
2018-11-27T13:33:55.781Z,19.30
2018-11-27T13:36:26.022Z,17.98
2018-11-27T13:38:56.255Z,18.57
2018-11-27T13:41:26.457Z,21.00
2018-11-27T13:43:56.554Z,20.20
2018-11-27T13:46:26.626Z,20.47
2018-11-27T13:48:56.717Z,19.83
2018-11-27T13:51:26.747Z,20.57
2018-11-27T13:53:56.855Z,19.33
2018-11-27T13:56:26.877Z,18.57
2018-11-27T13:58:56.873Z,19.57
2018-11-27T14:01:26.897Z,18.57
2018-11-27T14:03:57.056Z,19.90
2018-11-27T14:06:27.267Z,19.57
2018-11-27T14:08:59.991Z,19.03
2018-11-27T14:11:30.042Z,19.17
2018-11-27T14:14:00.272Z,18.67
2018-11-27T14:16:30.403Z,18.30
2018-11-27T14:19:00.618Z,18.13
2018-11-27T14:21:30.757Z,21.27
2018-11-27T14:24:00.763Z,21.00
2018-11-27T14:26:30.978Z,20.10
2018-11-27T14:29:01.201Z,20.00
2018-11-27T14:31:31.403Z,19.37
2018-11-27T14:34:01.633Z,19.03
2018-11-27T14:36:31.693Z,20.97
2018-11-27T14:39:01.691Z,20.60
2018-11-27T14:41:31.843Z,19.37
2018-11-27T14:44:01.817Z,19.87
2018-11-27T14:46:32.074Z,22.20
2018-11-27T14:49:01.972Z,20.20
2018-11-27T14:51:38.563Z,21.07
2018-11-27T14:54:08.724Z,21.25
2018-11-27T14:56:39.121Z,22.97
2018-11-27T14:59:09.065Z,21.23
2018-11-27T15:01:39.201Z,22.10
2018-11-27T15:04:09.225Z,21.23
2018-11-27T15:06:39.444Z,21.10
2018-11-27T15:09:10.912Z,22.07
2018-11-27T15:11:41.064Z,22.13
2018-11-27T15:14:11.511Z,21.33
2018-11-27T15:16:41.685Z,21.33
2018-11-27T15:19:11.870Z,22.20
2018-11-27T15:21:42.158Z,20.60
2018-11-27T15:24:12.447Z,22.53
2018-11-27T15:26:42.390Z,20.80
2018-11-27T15:29:12.599Z,22.30
2018-11-27T15:31:42.744Z,21.37
2018-11-27T15:34:12.963Z,20.80
2018-11-27T15:36:43.352Z,21.27
2018-11-27T15:39:13.650Z,21.45
2018-11-27T15:41:44.084Z,22.13
2018-11-27T15:44:14.543Z,22.17
2018-11-27T15:46:44.838Z,21.17
2018-11-27T15:49:14.959Z,19.80
2018-11-27T15:51:45.127Z,20.47
2018-11-27T15:54:15.300Z,20.37
2018-11-27T15:56:45.602Z,18.73
2018-11-27T15:59:15.631Z,19.60
2018-11-27T16:01:46.853Z,22.20
2018-11-27T16:04:17.020Z,22.53
2018-11-27T16:06:47.037Z,22.23
2018-11-27T16:09:17.250Z,21.10
2018-11-27T16:11:47.247Z,20.85
2018-11-27T16:14:17.286Z,20.07
2018-11-27T16:16:47.844Z,20.23
2018-11-27T16:19:17.809Z,21.23
2018-11-27T16:21:47.956Z,22.05
2018-11-27T16:24:20.326Z,19.67
2018-11-27T16:26:50.477Z,19.85
2018-11-27T16:29:20.733Z,19.50
2018-11-27T16:31:51.909Z,20.70
2018-11-27T16:34:22.058Z,18.98
2018-11-27T16:36:52.249Z,19.00
2018-11-27T16:39:22.223Z,19.48
2018-11-27T16:41:52.489Z,20.43
2018-11-27T16:44:22.771Z,20.17
2018-11-27T16:46:52.923Z,20.47
2018-11-27T16:49:23.065Z,21.70
2018-11-27T16:51:53.193Z,18.70
2018-11-27T16:54:23.464Z,18.98
2018-11-27T16:56:53.471Z,19.32
2018-11-27T16:59:54.439Z,19.70
2018-11-27T17:02:25.239Z,19.73
2018-11-27T17:04:55.400Z,20.32
2018-11-27T17:07:25.623Z,20.30
2018-11-27T17:09:55.654Z,19.55
2018-11-27T17:12:25.971Z,18.90
2018-11-27T17:14:56.099Z,19.48
2018-11-27T17:17:26.703Z,21.63
2018-11-27T17:19:56.934Z,20.40
2018-11-27T17:22:27.129Z,19.60
2018-11-27T17:24:57.095Z,20.03
2018-11-27T17:27:27.375Z,25.30
2018-11-27T17:29:57.537Z,21.93
2018-11-27T17:32:27.657Z,22.60
2018-11-27T17:34:57.621Z,21.45
2018-11-27T17:37:27.948Z,21.10
2018-11-27T17:39:58.385Z,19.43
2018-11-27T17:42:28.595Z,20.33
2018-11-27T17:44:58.924Z,18.70
2018-11-27T17:47:28.963Z,20.57
2018-11-27T17:49:59.283Z,21.53
2018-11-27T17:52:29.127Z,19.40
2018-11-27T17:54:59.279Z,20.50
2018-11-27T17:57:29.511Z,24.17
2018-11-27T17:59:59.731Z,21.83
2018-11-27T18:02:29.969Z,22.83
2018-11-27T18:05:14.739Z,20.60
2018-11-27T18:07:44.877Z,21.40
2018-11-27T18:10:14.955Z,20.62
2018-11-27T18:12:45.236Z,19.98
2018-11-27T18:15:18.275Z,19.60
2018-11-27T18:17:48.529Z,19.67
2018-11-27T18:20:18.681Z,19.10
2018-11-27T18:22:48.940Z,21.33
2018-11-27T18:25:20.288Z,20.75
2018-11-27T18:27:51.219Z,21.23
2018-11-27T18:30:23.119Z,22.10
2018-11-27T18:32:53.509Z,21.57
2018-11-27T18:35:24.993Z,22.17
2018-11-27T18:37:55.344Z,21.10
2018-11-27T18:40:25.730Z,21.95
2018-11-27T18:42:56.029Z,20.43
2018-11-27T18:45:28.722Z,20.73
2018-11-27T18:47:59.063Z,19.73
2018-11-27T18:50:30.888Z,21.27
2018-11-27T18:53:01.134Z,20.33
2018-11-27T18:55:32.508Z,21.10
2018-11-27T18:58:03.055Z,21.17
2018-11-27T19:00:40.512Z,20.67
2018-11-27T19:03:13.081Z,21.20
2018-11-27T19:05:43.330Z,21.10
2018-11-27T19:08:13.799Z,21.20
2018-11-27T19:10:45.257Z,20.03
2018-11-27T19:13:18.052Z,19.73
2018-11-27T19:15:49.582Z,22.30
2018-11-27T19:18:23.174Z,20.45
2018-11-27T19:20:53.435Z,21.80
2018-11-27T19:23:24.922Z,21.20
2018-11-27T19:25:55.175Z,20.30
2018-11-27T19:28:25.332Z,24.80
2018-11-27T19:30:55.353Z,22.10
2018-11-27T19:33:25.454Z,22.60
2018-11-27T19:35:55.668Z,21.83
2018-11-27T19:38:25.689Z,21.77
2018-11-27T19:40:55.870Z,19.97
2018-11-27T19:43:25.919Z,20.47
2018-11-27T19:45:55.997Z,18.40
2018-11-27T19:48:26.000Z,22.75
2018-11-27T19:50:57.007Z,21.52
2018-11-27T19:53:27.358Z,23.38
2018-11-27T20:28:51.571Z,24.43
2018-11-27T20:31:20.960Z,22.83
2018-11-27T20:33:50.326Z,21.48
2018-11-27T20:36:19.783Z,20.27
2018-11-27T20:38:49.071Z,21.00
2018-11-27T20:41:18.470Z,19.83
2018-11-27T20:43:47.918Z,22.70
2018-11-27T20:46:17.232Z,21.05
2018-11-27T20:48:46.545Z,22.20
2018-11-27T20:51:16.261Z,21.67
2018-11-27T20:53:45.678Z,21.43
2018-11-27T20:56:15.017Z,22.57
2018-11-27T20:58:44.376Z,23.27
2018-11-27T21:01:13.720Z,21.13
2018-11-27T21:03:43.059Z,21.17
2018-11-27T21:06:13.287Z,21.17
2018-11-27T21:08:42.676Z,19.37
2018-11-27T21:11:12.040Z,21.07
2018-11-27T21:13:41.465Z,21.07
2018-11-27T21:16:11.306Z,19.87
2018-11-27T21:18:41.566Z,20.45
2018-11-27T21:21:11.870Z,21.70
2018-11-27T21:23:41.297Z,20.53
2018-11-27T21:26:12.311Z,19.02
2018-11-27T21:28:41.975Z,21.67
2018-11-27T21:31:11.500Z,19.27
2018-11-27T21:33:42.131Z,20.80
2018-11-27T21:36:11.480Z,19.30
2018-11-27T21:38:41.516Z,18.70
2018-11-27T21:41:12.233Z,19.50
2018-11-27T21:43:41.603Z,18.70
2018-11-27T21:46:11.658Z,19.90
2018-11-27T21:48:41.603Z,21.23
2018-11-27T21:51:11.709Z,19.15
2018-11-27T21:53:41.704Z,19.60
2018-11-27T21:56:11.733Z,21.00
2018-11-27T21:58:41.622Z,20.10
2018-11-27T22:01:12.345Z,20.92
2018-11-27T22:03:42.529Z,19.80
2018-11-27T22:06:12.430Z,19.70
2018-11-27T22:08:48.420Z,19.87
2018-11-27T22:11:18.532Z,20.57
2018-11-27T22:13:48.377Z,19.30
2018-11-27T22:16:18.384Z,20.05
2018-11-27T22:18:48.373Z,19.15
2018-11-27T22:21:18.279Z,21.10
2018-11-27T22:23:48.204Z,19.77
2018-11-27T22:26:18.120Z,22.57
2018-11-27T22:28:48.031Z,19.17
2018-11-27T22:31:18.111Z,21.50
2018-11-27T22:33:47.909Z,19.27
2018-11-27T22:36:17.888Z,20.23
2018-11-27T22:38:47.907Z,20.67
2018-11-27T22:41:17.688Z,21.10
2018-11-27T22:43:47.465Z,21.52
2018-11-27T22:46:17.453Z,20.52
2018-11-27T22:48:48.325Z,21.23
2018-11-27T22:51:18.274Z,19.30
2018-11-27T22:53:48.283Z,21.13
2018-11-27T22:56:18.077Z,19.87
2018-11-27T22:58:47.853Z,21.13
2018-11-27T23:01:17.749Z,21.10
2018-11-27T23:03:47.661Z,19.62
2018-11-27T23:06:17.728Z,19.85
2018-11-27T23:08:47.597Z,19.20
2018-11-27T23:11:17.429Z,21.83
2018-11-27T23:13:47.646Z,20.92
2018-11-27T23:16:21.453Z,19.97
2018-11-27T23:18:51.452Z,22.80
2018-11-27T23:21:21.985Z,21.40
2018-11-27T23:23:52.012Z,22.25
2018-11-27T23:26:21.905Z,20.08
2018-11-27T23:28:51.818Z,20.65
2018-11-27T23:31:21.959Z,20.70
2018-11-27T23:33:52.059Z,21.40
2018-11-27T23:36:21.973Z,20.30
2018-11-27T23:38:51.911Z,20.50
2018-11-27T23:41:21.809Z,22.23
2018-11-27T23:43:52.047Z,21.23
2018-11-27T23:46:21.945Z,22.20
2018-11-27T23:48:52.164Z,23.00
2018-11-27T23:51:22.500Z,21.23
2018-11-27T23:53:52.296Z,22.63
2018-11-27T23:56:22.210Z,22.30
2018-11-27T23:58:52.232Z,20.80
